GTI8275 PANC-KLAX
Flight info
| Callsign | GTI8275 |
|---|---|
| Flight time | 4h 28m |
| Altitude | 35000 |
| Route | MDO B453 BOXER FOT OAK BURGL ZUUMA4 |
| Aircraft | B748/H-V/N |
Departure
| Time | 2026-05-05 05:36 |
|---|---|
| Airport | Ted Stevens Anchorage International Airport (PANC) |
Arrival
| Time | 2026-05-05 10:05 |
|---|---|
| Airport | Los Angeles International Airport (KLAX) |
| Time | Latitude | Longitude | Altitude | Speed | Heading |
|---|---|---|---|---|---|
| 2026-05-05 05:09 | 61.19789 | -150.00532 | 156 ft | 0 kts | 165° |
| 2026-05-05 05:19 | 61.19790 | -150.00533 | 156 ft | 2 kts | 165° |
| 2026-05-05 05:20 | 61.19806 | -150.00541 | 156 ft | 2 kts | 167° |
| 2026-05-05 05:20 | 61.19822 | -150.00549 | 156 ft | 2 kts | 172° |
| 2026-05-05 05:20 | 61.19838 | -150.00551 | 157 ft | 2 kts | 201° |
| 2026-05-05 05:20 | 61.19848 | -150.00549 | 156 ft | 2 kts | 257° |
| 2026-05-05 05:21 | 61.19847 | -150.00580 | 157 ft | 2 kts | 262° |
| 2026-05-05 05:21 | 61.19844 | -150.00611 | 157 ft | 2 kts | 258° |
| 2026-05-05 05:21 | 61.19843 | -150.00624 | 158 ft | 0 kts | 257° |
| 2026-05-05 05:28 | 61.19840 | -150.00643 | 158 ft | 4 kts | 257° |
| 2026-05-05 05:28 | 61.19827 | -150.00744 | 160 ft | 11 kts | 255° |
| 2026-05-05 05:28 | 61.19806 | -150.00912 | 163 ft | 11 kts | 254° |
| 2026-05-05 05:28 | 61.19779 | -150.00987 | 165 ft | 3 kts | 203° |
| 2026-05-05 05:29 | 61.19729 | -150.00973 | 164 ft | 14 kts | 164° |
| 2026-05-05 05:29 | 61.19643 | -150.00924 | 165 ft | 11 kts | 165° |
| 2026-05-05 05:29 | 61.19570 | -150.00889 | 164 ft | 9 kts | 180° |
| 2026-05-05 05:29 | 61.19543 | -150.00949 | 165 ft | 6 kts | 254° |
| 2026-05-05 05:30 | 61.19518 | -150.01138 | 163 ft | 16 kts | 255° |
| 2026-05-05 05:30 | 61.19489 | -150.01365 | 160 ft | 16 kts | 256° |
| 2026-05-05 05:30 | 61.19454 | -150.01473 | 158 ft | 0 kts | 188° |
| 2026-05-05 05:30 | 61.19448 | -150.01470 | 158 ft | 2 kts | 172° |
| 2026-05-05 05:31 | 61.19391 | -150.01434 | 160 ft | 16 kts | 163° |
| 2026-05-05 05:31 | 61.19274 | -150.01369 | 160 ft | 17 kts | 164° |
| 2026-05-05 05:31 | 61.19174 | -150.01312 | 161 ft | 14 kts | 165° |
| 2026-05-05 05:31 | 61.19054 | -150.01244 | 156 ft | 22 kts | 165° |
| 2026-05-05 05:32 | 61.18895 | -150.01156 | 155 ft | 25 kts | 164° |
| 2026-05-05 05:32 | 61.18716 | -150.01054 | 154 ft | 29 kts | 165° |
| 2026-05-05 05:32 | 61.18519 | -150.00944 | 152 ft | 31 kts | 165° |
| 2026-05-05 05:32 | 61.18305 | -150.00825 | 144 ft | 33 kts | 165° |
| 2026-05-05 05:33 | 61.18098 | -150.00708 | 144 ft | 29 kts | 165° |
| 2026-05-05 05:33 | 61.17921 | -150.00609 | 148 ft | 24 kts | 164° |
| 2026-05-05 05:33 | 61.17768 | -150.00523 | 145 ft | 23 kts | 165° |
| 2026-05-05 05:33 | 61.17622 | -150.00442 | 143 ft | 22 kts | 165° |
| 2026-05-05 05:34 | 61.17448 | -150.00344 | 140 ft | 26 kts | 165° |
| 2026-05-05 05:34 | 61.17284 | -150.00253 | 141 ft | 23 kts | 165° |
| 2026-05-05 05:34 | 61.17153 | -150.00179 | 139 ft | 12 kts | 160° |
| 2026-05-05 05:34 | 61.17128 | -150.00083 | 138 ft | 7 kts | 97° |
| 2026-05-05 05:35 | 61.17130 | -149.99950 | 137 ft | 10 kts | 73° |
| 2026-05-05 05:35 | 61.17176 | -149.99901 | 138 ft | 9 kts | 357° |
| 2026-05-05 05:35 | 61.17307 | -149.99970 | 143 ft | 42 kts | 345° |
| 2026-05-05 05:35 | 61.17807 | -150.00250 | 145 ft | 105 kts | 345° |
| 2026-05-05 05:36 | 61.18682 | -150.00740 | 160 ft | 154 kts | 344° |
| 2026-05-05 05:36 | 61.19840 | -150.01385 | 451 ft | 181 kts | 344° |
| 2026-05-05 05:36 | 61.21057 | -150.02252 | 950 ft | 193 kts | 334° |
| 2026-05-05 05:36 | 61.22099 | -150.04065 | 1624 ft | 196 kts | 312° |
| 2026-05-05 05:37 | 61.22982 | -150.06086 | 2550 ft | 188 kts | 314° |
| 2026-05-05 05:37 | 61.23951 | -150.08125 | 2923 ft | 209 kts | 317° |
| 2026-05-05 05:37 | 61.25018 | -150.10262 | 3561 ft | 216 kts | 315° |
| 2026-05-05 05:37 | 61.25834 | -150.12975 | 4037 ft | 237 kts | 288° |
| 2026-05-05 05:38 | 61.26375 | -150.16356 | 4731 ft | 255 kts | 285° |
| 2026-05-05 05:38 | 61.26922 | -150.19996 | 5405 ft | 274 kts | 282° |
| 2026-05-05 05:38 | 61.27020 | -150.23973 | 6218 ft | 277 kts | 252° |
| 2026-05-05 05:38 | 61.26215 | -150.27513 | 7203 ft | 269 kts | 223° |
| 2026-05-05 05:39 | 61.24748 | -150.29736 | 8180 ft | 260 kts | 195° |
| 2026-05-05 05:39 | 61.23592 | -150.30210 | 8805 ft | 255 kts | 176° |
| 2026-05-05 05:39 | 61.21891 | -150.29291 | 9729 ft | 256 kts | 148° |
| 2026-05-05 05:39 | 61.20521 | -150.26875 | 10473 ft | 265 kts | 140° |
| 2026-05-05 05:40 | 61.19054 | -150.24257 | 10732 ft | 290 kts | 140° |
| 2026-05-05 05:40 | 61.17517 | -150.21303 | 11080 ft | 312 kts | 136° |
| 2026-05-05 05:40 | 61.16002 | -150.17886 | 11472 ft | 331 kts | 133° |
| 2026-05-05 05:40 | 61.14467 | -150.14165 | 11921 ft | 348 kts | 133° |
| 2026-05-05 05:41 | 61.12887 | -150.10230 | 12380 ft | 363 kts | 132° |
| 2026-05-05 05:41 | 61.11251 | -150.06095 | 12787 ft | 378 kts | 132° |
| 2026-05-05 05:41 | 61.09542 | -150.01827 | 13382 ft | 392 kts | 133° |
| 2026-05-05 05:41 | 61.07731 | -149.97518 | 14037 ft | 401 kts | 134° |
| 2026-05-05 05:42 | 61.05874 | -149.93185 | 14815 ft | 406 kts | 134° |
| 2026-05-05 05:42 | 61.03987 | -149.88802 | 15586 ft | 411 kts | 134° |
| 2026-05-05 05:42 | 61.02091 | -149.84336 | 16331 ft | 417 kts | 133° |
| 2026-05-05 05:42 | 61.00231 | -149.79789 | 17215 ft | 419 kts | 134° |
| 2026-05-05 05:43 | 60.98292 | -149.75232 | 17805 ft | 426 kts | 134° |
| 2026-05-05 05:43 | 60.96306 | -149.70631 | 18468 ft | 431 kts | 135° |
| 2026-05-05 05:43 | 60.94303 | -149.66003 | 19113 ft | 435 kts | 135° |
| 2026-05-05 05:43 | 60.92298 | -149.61311 | 19772 ft | 439 kts | 133° |
| 2026-05-05 05:44 | 60.90303 | -149.56529 | 20429 ft | 442 kts | 134° |
| 2026-05-05 05:44 | 60.88257 | -149.51781 | 21102 ft | 445 kts | 135° |
| 2026-05-05 05:44 | 60.86212 | -149.47083 | 21757 ft | 447 kts | 135° |
| 2026-05-05 05:44 | 60.84128 | -149.42309 | 22419 ft | 451 kts | 135° |
| 2026-05-05 05:45 | 60.82056 | -149.37444 | 23084 ft | 455 kts | 134° |
| 2026-05-05 05:45 | 60.79964 | -149.32548 | 23706 ft | 457 kts | 135° |
| 2026-05-05 05:45 | 60.77835 | -149.27685 | 24241 ft | 459 kts | 136° |
| 2026-05-05 05:45 | 60.75697 | -149.22840 | 24908 ft | 459 kts | 136° |
| 2026-05-05 05:46 | 60.73567 | -149.17919 | 25485 ft | 462 kts | 135° |
| 2026-05-05 05:46 | 60.71448 | -149.12978 | 26090 ft | 464 kts | 136° |
| 2026-05-05 05:46 | 60.69276 | -149.08082 | 26622 ft | 465 kts | 137° |
| 2026-05-05 05:46 | 60.67098 | -149.03167 | 27196 ft | 467 kts | 137° |
| 2026-05-05 05:47 | 60.64937 | -148.98198 | 27745 ft | 470 kts | 136° |
| 2026-05-05 05:47 | 60.62757 | -148.93216 | 28297 ft | 471 kts | 137° |
| 2026-05-05 05:47 | 60.60540 | -148.88294 | 28816 ft | 472 kts | 138° |
| 2026-05-05 05:47 | 60.58372 | -148.83340 | 29891 ft | 464 kts | 137° |
| 2026-05-05 05:48 | 60.56242 | -148.78466 | 30531 ft | 462 kts | 138° |
| 2026-05-05 05:48 | 60.54056 | -148.73634 | 31056 ft | 462 kts | 139° |
| 2026-05-05 05:48 | 60.51899 | -148.68821 | 31655 ft | 463 kts | 137° |
| 2026-05-05 05:48 | 60.49768 | -148.63924 | 32233 ft | 462 kts | 138° |
| 2026-05-05 05:49 | 60.47600 | -148.59106 | 32704 ft | 463 kts | 139° |
| 2026-05-05 05:49 | 60.45439 | -148.54377 | 33171 ft | 464 kts | 138° |
| 2026-05-05 05:49 | 60.43260 | -148.49428 | 33660 ft | 466 kts | 137° |
| 2026-05-05 05:49 | 60.41109 | -148.44618 | 34033 ft | 466 kts | 139° |
| 2026-05-05 05:50 | 60.38902 | -148.39800 | 34417 ft | 467 kts | 139° |
| 2026-05-05 05:50 | 60.36700 | -148.34942 | 34768 ft | 468 kts | 137° |
| 2026-05-05 05:50 | 60.32331 | -148.25230 | 34851 ft | 469 kts | 139° |
| 2026-05-05 05:51 | 60.27889 | -148.15502 | 34846 ft | 474 kts | 137° |
| 2026-05-05 05:51 | 60.23431 | -148.05754 | 34844 ft | 472 kts | 139° |
| 2026-05-05 05:52 | 60.18982 | -147.96027 | 34835 ft | 473 kts | 138° |
| 2026-05-05 05:52 | 60.14502 | -147.86392 | 34840 ft | 471 kts | 139° |
| 2026-05-05 05:53 | 60.10061 | -147.76709 | 34831 ft | 471 kts | 138° |
| 2026-05-05 05:53 | 60.05564 | -147.67165 | 34843 ft | 471 kts | 138° |
| 2026-05-05 05:54 | 60.01117 | -147.57537 | 34830 ft | 470 kts | 139° |
| 2026-05-05 05:54 | 59.96624 | -147.48039 | 34848 ft | 471 kts | 138° |
| 2026-05-05 05:55 | 59.92161 | -147.38522 | 34837 ft | 469 kts | 139° |
| 2026-05-05 05:55 | 59.87688 | -147.29046 | 34833 ft | 468 kts | 138° |
| 2026-05-05 05:56 | 59.83233 | -147.19750 | 34827 ft | 466 kts | 139° |
| 2026-05-05 05:56 | 59.78793 | -147.10344 | 34832 ft | 465 kts | 139° |
| 2026-05-05 05:57 | 59.74308 | -147.01095 | 34827 ft | 465 kts | 139° |
| 2026-05-05 05:57 | 59.69870 | -146.91792 | 34829 ft | 463 kts | 139° |
| 2026-05-05 05:58 | 59.65418 | -146.82580 | 34822 ft | 464 kts | 139° |
| 2026-05-05 05:58 | 59.60943 | -146.73427 | 34826 ft | 461 kts | 139° |
| 2026-05-05 05:59 | 59.56516 | -146.64233 | 34816 ft | 462 kts | 139° |
| 2026-05-05 05:59 | 59.52038 | -146.55174 | 34821 ft | 461 kts | 139° |
| 2026-05-05 06:00 | 59.47597 | -146.46086 | 34814 ft | 460 kts | 140° |
| 2026-05-05 06:00 | 59.43155 | -146.37021 | 34818 ft | 460 kts | 139° |
| 2026-05-05 06:01 | 59.38868 | -146.27660 | 34815 ft | 463 kts | 135° |
| 2026-05-05 06:01 | 59.34866 | -146.17852 | 34818 ft | 464 kts | 134° |
| 2026-05-05 06:02 | 59.30870 | -146.07939 | 34823 ft | 463 kts | 135° |
| 2026-05-05 06:02 | 59.26734 | -145.98291 | 34819 ft | 462 kts | 136° |
| 2026-05-05 06:03 | 59.22666 | -145.88549 | 34828 ft | 462 kts | 135° |
| 2026-05-05 06:03 | 59.18532 | -145.78941 | 34830 ft | 462 kts | 135° |
| 2026-05-05 06:04 | 59.14449 | -145.69265 | 34838 ft | 461 kts | 136° |
| 2026-05-05 06:04 | 59.10330 | -145.59679 | 34836 ft | 462 kts | 135° |
| 2026-05-05 06:05 | 59.06200 | -145.50115 | 34845 ft | 460 kts | 137° |
| 2026-05-05 06:05 | 59.02126 | -145.40585 | 34845 ft | 461 kts | 136° |
| 2026-05-05 06:06 | 58.97969 | -145.31123 | 34838 ft | 461 kts | 136° |
| 2026-05-05 06:06 | 58.93862 | -145.21595 | 34845 ft | 460 kts | 137° |
| 2026-05-05 06:07 | 58.89723 | -145.12141 | 34852 ft | 461 kts | 136° |
| 2026-05-05 06:07 | 58.85567 | -145.02737 | 34848 ft | 459 kts | 137° |
| 2026-05-05 06:08 | 58.81444 | -144.93280 | 34854 ft | 459 kts | 137° |
| 2026-05-05 06:08 | 58.77276 | -144.83953 | 34850 ft | 460 kts | 136° |
| 2026-05-05 06:09 | 58.73132 | -144.74582 | 34857 ft | 459 kts | 138° |
| 2026-05-05 06:09 | 58.68978 | -144.65229 | 34852 ft | 460 kts | 137° |
| 2026-05-05 06:10 | 58.64817 | -144.56047 | 34854 ft | 459 kts | 138° |
| 2026-05-05 06:10 | 58.60670 | -144.46707 | 34864 ft | 459 kts | 138° |
| 2026-05-05 06:11 | 58.56474 | -144.37489 | 34855 ft | 460 kts | 137° |
| 2026-05-05 06:11 | 58.52292 | -144.28242 | 34862 ft | 458 kts | 139° |
| 2026-05-05 06:12 | 58.48116 | -144.19008 | 34863 ft | 459 kts | 138° |
| 2026-05-05 06:12 | 58.43892 | -144.09872 | 34871 ft | 459 kts | 138° |
| 2026-05-05 06:13 | 58.39712 | -144.00658 | 34868 ft | 458 kts | 139° |
| 2026-05-05 06:13 | 58.35498 | -143.91542 | 34870 ft | 460 kts | 138° |
| 2026-05-05 06:14 | 58.31276 | -143.82433 | 34870 ft | 458 kts | 140° |
| 2026-05-05 06:14 | 58.27076 | -143.73305 | 34875 ft | 459 kts | 139° |
| 2026-05-05 06:15 | 58.22822 | -143.64283 | 34879 ft | 459 kts | 139° |
| 2026-05-05 06:15 | 58.18631 | -143.55232 | 34886 ft | 459 kts | 140° |
| 2026-05-05 06:16 | 58.14379 | -143.46196 | 34890 ft | 460 kts | 139° |
| 2026-05-05 06:16 | 58.10122 | -143.37202 | 34882 ft | 458 kts | 140° |
| 2026-05-05 06:17 | 58.05882 | -143.28160 | 34886 ft | 459 kts | 140° |
| 2026-05-05 06:17 | 58.01594 | -143.19246 | 34886 ft | 459 kts | 140° |
| 2026-05-05 06:18 | 57.97348 | -143.10240 | 34889 ft | 459 kts | 141° |
| 2026-05-05 06:18 | 57.93061 | -143.01333 | 34898 ft | 460 kts | 140° |
| 2026-05-05 06:19 | 57.88775 | -142.92418 | 34895 ft | 459 kts | 141° |
| 2026-05-05 06:19 | 57.84498 | -142.83488 | 34900 ft | 460 kts | 141° |
| 2026-05-05 06:20 | 57.80177 | -142.74675 | 34907 ft | 459 kts | 141° |
| 2026-05-05 06:20 | 57.75923 | -142.65815 | 34905 ft | 459 kts | 141° |
| 2026-05-05 06:21 | 57.71594 | -142.57027 | 34912 ft | 460 kts | 140° |
| 2026-05-05 06:21 | 57.67289 | -142.48183 | 34907 ft | 459 kts | 142° |
| 2026-05-05 06:22 | 57.62966 | -142.39380 | 34909 ft | 461 kts | 141° |
| 2026-05-05 06:22 | 57.58624 | -142.30628 | 34919 ft | 459 kts | 142° |
| 2026-05-05 06:23 | 57.54304 | -142.21833 | 34924 ft | 460 kts | 142° |
| 2026-05-05 06:23 | 57.49930 | -142.13146 | 34919 ft | 459 kts | 142° |
| 2026-05-05 06:24 | 57.45604 | -142.04366 | 34926 ft | 460 kts | 142° |
| 2026-05-05 06:24 | 57.41220 | -141.95728 | 34919 ft | 461 kts | 142° |
| 2026-05-05 06:25 | 57.36878 | -141.87002 | 34927 ft | 460 kts | 143° |
| 2026-05-05 06:25 | 57.32493 | -141.78367 | 34934 ft | 462 kts | 142° |
| 2026-05-05 06:26 | 57.28119 | -141.69700 | 34939 ft | 460 kts | 143° |
| 2026-05-05 06:26 | 57.23762 | -141.61129 | 34945 ft | 462 kts | 142° |
| 2026-05-05 06:27 | 57.17149 | -141.48266 | 34936 ft | 461 kts | 143° |
| 2026-05-05 06:28 | 57.12767 | -141.39627 | 34945 ft | 461 kts | 143° |
| 2026-05-05 06:28 | 57.08337 | -141.31115 | 34947 ft | 462 kts | 143° |
| 2026-05-05 06:29 | 57.03932 | -141.22514 | 34946 ft | 461 kts | 144° |
| 2026-05-05 06:29 | 57.00231 | -141.15474 | 34950 ft | 462 kts | 143° |
| 2026-05-05 06:30 | 56.95816 | -141.06904 | 34953 ft | 461 kts | 144° |
| 2026-05-05 06:30 | 56.91359 | -140.98440 | 34957 ft | 463 kts | 143° |
| 2026-05-05 06:31 | 56.86922 | -140.89919 | 34955 ft | 462 kts | 144° |
| 2026-05-05 06:31 | 56.82453 | -140.81480 | 34968 ft | 464 kts | 143° |
| 2026-05-05 06:32 | 56.77997 | -140.73005 | 34970 ft | 462 kts | 144° |
| 2026-05-05 06:32 | 56.73517 | -140.64577 | 34962 ft | 464 kts | 143° |
| 2026-05-05 06:33 | 56.69034 | -140.56137 | 34971 ft | 463 kts | 144° |
| 2026-05-05 06:33 | 56.64538 | -140.47731 | 34971 ft | 465 kts | 143° |
| 2026-05-05 06:34 | 56.60035 | -140.39322 | 34972 ft | 464 kts | 144° |
| 2026-05-05 06:34 | 56.55521 | -140.30938 | 34973 ft | 466 kts | 143° |
| 2026-05-05 06:35 | 56.50994 | -140.22551 | 34977 ft | 465 kts | 144° |
| 2026-05-05 06:35 | 56.46460 | -140.14189 | 34978 ft | 467 kts | 143° |
| 2026-05-05 06:36 | 56.41912 | -140.05832 | 34990 ft | 466 kts | 144° |
| 2026-05-05 06:36 | 56.37357 | -139.97480 | 34985 ft | 468 kts | 143° |
| 2026-05-05 06:37 | 56.32790 | -139.89146 | 34985 ft | 467 kts | 144° |
| 2026-05-05 06:37 | 56.28211 | -139.80832 | 34989 ft | 469 kts | 143° |
| 2026-05-05 06:38 | 56.23629 | -139.72515 | 34994 ft | 468 kts | 144° |
| 2026-05-05 06:38 | 56.19022 | -139.64220 | 34996 ft | 470 kts | 143° |
| 2026-05-05 06:39 | 56.14421 | -139.55910 | 35004 ft | 469 kts | 144° |
| 2026-05-05 06:39 | 56.09788 | -139.47668 | 34992 ft | 471 kts | 143° |
| 2026-05-05 06:40 | 56.05204 | -139.39408 | 35002 ft | 470 kts | 144° |
| 2026-05-05 06:40 | 56.00544 | -139.31210 | 35003 ft | 471 kts | 144° |
| 2026-05-05 06:41 | 55.95921 | -139.22907 | 35009 ft | 471 kts | 144° |
| 2026-05-05 06:41 | 55.91236 | -139.14727 | 35015 ft | 471 kts | 145° |
| 2026-05-05 06:42 | 55.86590 | -139.06449 | 35008 ft | 472 kts | 144° |
| 2026-05-05 06:42 | 55.81892 | -138.98285 | 35011 ft | 472 kts | 145° |
| 2026-05-05 06:43 | 55.77216 | -138.90039 | 35012 ft | 474 kts | 144° |
| 2026-05-05 06:43 | 55.72501 | -138.81873 | 35017 ft | 474 kts | 145° |
| 2026-05-05 06:44 | 55.67788 | -138.73673 | 35016 ft | 475 kts | 144° |
| 2026-05-05 06:44 | 55.63092 | -138.65545 | 35022 ft | 475 kts | 145° |
| 2026-05-05 06:45 | 55.58335 | -138.57421 | 35023 ft | 476 kts | 144° |
| 2026-05-05 06:45 | 55.53608 | -138.49205 | 35026 ft | 476 kts | 144° |
| 2026-05-05 06:46 | 55.48827 | -138.41099 | 35029 ft | 477 kts | 145° |
| 2026-05-05 06:46 | 55.44062 | -138.32912 | 35031 ft | 478 kts | 144° |
| 2026-05-05 06:47 | 55.39274 | -138.24786 | 35030 ft | 478 kts | 145° |
| 2026-05-05 06:47 | 55.34456 | -138.16702 | 35026 ft | 479 kts | 145° |
| 2026-05-05 06:48 | 55.29667 | -138.08530 | 35031 ft | 480 kts | 144° |
| 2026-05-05 06:48 | 55.24833 | -138.00443 | 35036 ft | 480 kts | 145° |
| 2026-05-05 06:49 | 55.19991 | -137.92388 | 35036 ft | 480 kts | 145° |
| 2026-05-05 06:49 | 55.15169 | -137.84260 | 35041 ft | 481 kts | 145° |
| 2026-05-05 06:50 | 55.10312 | -137.76209 | 35036 ft | 481 kts | 145° |
| 2026-05-05 06:50 | 55.05443 | -137.68187 | 35041 ft | 481 kts | 145° |
| 2026-05-05 06:51 | 55.00592 | -137.60134 | 35040 ft | 482 kts | 144° |
| 2026-05-05 06:51 | 54.95728 | -137.52118 | 35044 ft | 481 kts | 145° |
| 2026-05-05 06:52 | 54.90842 | -137.44149 | 35034 ft | 482 kts | 145° |
| 2026-05-05 06:52 | 54.85963 | -137.36161 | 35038 ft | 483 kts | 144° |
| 2026-05-05 06:53 | 54.81109 | -137.28213 | 35040 ft | 482 kts | 145° |
| 2026-05-05 06:53 | 54.76198 | -137.20292 | 35039 ft | 482 kts | 145° |
| 2026-05-05 06:54 | 54.71284 | -137.12367 | 35050 ft | 483 kts | 145° |
| 2026-05-05 06:54 | 54.66367 | -137.04439 | 35043 ft | 483 kts | 145° |
| 2026-05-05 06:55 | 54.61447 | -136.96527 | 35050 ft | 484 kts | 145° |
| 2026-05-05 06:55 | 54.56510 | -136.88622 | 35043 ft | 485 kts | 145° |
| 2026-05-05 06:56 | 54.51562 | -136.80730 | 35049 ft | 485 kts | 145° |
| 2026-05-05 06:56 | 54.46604 | -136.72846 | 35042 ft | 486 kts | 145° |
| 2026-05-05 06:57 | 54.41631 | -136.64966 | 35047 ft | 486 kts | 145° |
| 2026-05-05 06:57 | 54.36651 | -136.57104 | 35046 ft | 487 kts | 145° |
| 2026-05-05 06:58 | 54.31660 | -136.49251 | 35044 ft | 487 kts | 145° |
| 2026-05-05 06:58 | 54.26658 | -136.41408 | 35049 ft | 488 kts | 145° |
| 2026-05-05 06:59 | 54.21646 | -136.33568 | 35053 ft | 488 kts | 144° |
| 2026-05-05 06:59 | 54.16662 | -136.25792 | 35042 ft | 489 kts | 144° |
| 2026-05-05 07:00 | 54.11628 | -136.17987 | 35046 ft | 489 kts | 145° |
| 2026-05-05 07:00 | 54.06589 | -136.10189 | 35050 ft | 490 kts | 144° |
| 2026-05-05 07:01 | 54.01539 | -136.02402 | 35044 ft | 490 kts | 144° |
| 2026-05-05 07:01 | 53.96251 | -135.95235 | 35049 ft | 482 kts | 152° |
| 2026-05-05 07:02 | 53.90665 | -135.88951 | 35222 ft | 482 kts | 151° |
| 2026-05-05 07:02 | 53.87956 | -135.85601 | 35612 ft | 482 kts | 150° |
| 2026-05-05 07:02 | 53.85257 | -135.82257 | 36044 ft | 480 kts | 151° |
| 2026-05-05 07:02 | 53.82532 | -135.79002 | 36441 ft | 478 kts | 152° |
| 2026-05-05 07:03 | 53.79802 | -135.75795 | 36843 ft | 478 kts | 152° |
| 2026-05-05 07:03 | 53.77071 | -135.72597 | 37060 ft | 476 kts | 152° |
| 2026-05-05 07:03 | 53.74363 | -135.69425 | 37059 ft | 475 kts | 152° |
| 2026-05-05 07:04 | 53.68903 | -135.62930 | 37051 ft | 482 kts | 151° |
| 2026-05-05 07:04 | 53.63413 | -135.56427 | 37046 ft | 482 kts | 152° |
| 2026-05-05 07:05 | 53.57897 | -135.49996 | 37046 ft | 482 kts | 152° |
| 2026-05-05 07:05 | 53.52383 | -135.43553 | 37049 ft | 483 kts | 151° |
| 2026-05-05 07:06 | 53.46881 | -135.37057 | 37046 ft | 483 kts | 152° |
| 2026-05-05 07:06 | 53.41346 | -135.30646 | 37052 ft | 483 kts | 152° |
| 2026-05-05 07:07 | 53.35809 | -135.24247 | 37046 ft | 484 kts | 152° |
| 2026-05-05 07:07 | 53.30308 | -135.17880 | 37043 ft | 484 kts | 152° |
| 2026-05-05 07:08 | 53.24765 | -135.11477 | 37041 ft | 485 kts | 152° |
| 2026-05-05 07:08 | 53.19217 | -135.05092 | 37047 ft | 485 kts | 152° |
| 2026-05-05 07:09 | 53.13655 | -134.98717 | 37044 ft | 486 kts | 151° |
| 2026-05-05 07:09 | 53.08080 | -134.92345 | 37043 ft | 486 kts | 151° |
| 2026-05-05 07:10 | 53.02496 | -134.85979 | 37055 ft | 487 kts | 151° |
| 2026-05-05 07:10 | 52.96899 | -134.79611 | 37047 ft | 487 kts | 151° |
| 2026-05-05 07:11 | 52.91294 | -134.73283 | 37036 ft | 488 kts | 151° |
| 2026-05-05 07:11 | 52.85675 | -134.66950 | 37047 ft | 488 kts | 151° |
| 2026-05-05 07:12 | 52.80053 | -134.60626 | 37038 ft | 489 kts | 151° |
| 2026-05-05 07:12 | 52.74412 | -134.54302 | 37041 ft | 489 kts | 151° |
| 2026-05-05 07:13 | 52.68806 | -134.48039 | 37042 ft | 490 kts | 151° |
| 2026-05-05 07:13 | 52.63159 | -134.41750 | 37037 ft | 490 kts | 151° |
| 2026-05-05 07:14 | 52.57504 | -134.35473 | 37041 ft | 490 kts | 151° |
| 2026-05-05 07:14 | 52.52792 | -134.30257 | 37032 ft | 491 kts | 151° |
| 2026-05-05 07:15 | 52.47124 | -134.24001 | 37038 ft | 491 kts | 151° |
| 2026-05-05 07:15 | 52.41448 | -134.17757 | 37031 ft | 491 kts | 151° |
| 2026-05-05 07:16 | 52.35767 | -134.11527 | 37032 ft | 492 kts | 151° |
| 2026-05-05 07:16 | 52.30075 | -134.05305 | 37035 ft | 492 kts | 151° |
| 2026-05-05 07:17 | 52.24382 | -133.99098 | 37031 ft | 493 kts | 151° |
| 2026-05-05 07:17 | 52.18676 | -133.92898 | 37036 ft | 493 kts | 151° |
| 2026-05-05 07:18 | 52.12961 | -133.86708 | 37029 ft | 494 kts | 151° |
| 2026-05-05 07:18 | 52.07238 | -133.80528 | 37025 ft | 494 kts | 151° |
| 2026-05-05 07:19 | 52.01510 | -133.74356 | 37024 ft | 495 kts | 151° |
| 2026-05-05 07:19 | 51.95771 | -133.68194 | 37026 ft | 495 kts | 151° |
| 2026-05-05 07:20 | 51.90016 | -133.62044 | 37022 ft | 495 kts | 151° |
| 2026-05-05 07:20 | 51.84265 | -133.55912 | 37025 ft | 496 kts | 151° |
| 2026-05-05 07:21 | 51.78498 | -133.49779 | 37030 ft | 496 kts | 151° |
| 2026-05-05 07:21 | 51.72771 | -133.43709 | 37027 ft | 496 kts | 151° |
| 2026-05-05 07:22 | 51.66999 | -133.37609 | 37023 ft | 496 kts | 151° |
| 2026-05-05 07:22 | 51.61221 | -133.31523 | 37018 ft | 496 kts | 151° |
| 2026-05-05 07:23 | 51.55434 | -133.25447 | 37024 ft | 496 kts | 151° |
| 2026-05-05 07:23 | 51.49651 | -133.19392 | 37021 ft | 497 kts | 151° |
| 2026-05-05 07:24 | 51.43857 | -133.13345 | 37022 ft | 497 kts | 151° |
| 2026-05-05 07:24 | 51.38058 | -133.07312 | 37018 ft | 497 kts | 151° |
| 2026-05-05 07:25 | 51.32256 | -133.01295 | 37019 ft | 497 kts | 151° |
| 2026-05-05 07:25 | 51.26446 | -132.95287 | 37013 ft | 498 kts | 151° |
| 2026-05-05 07:26 | 51.20626 | -132.89287 | 37017 ft | 498 kts | 151° |
| 2026-05-05 07:26 | 51.14807 | -132.83307 | 37009 ft | 498 kts | 151° |
| 2026-05-05 07:27 | 51.08985 | -132.77342 | 37015 ft | 498 kts | 151° |
| 2026-05-05 07:27 | 51.03187 | -132.71418 | 37012 ft | 498 kts | 151° |
| 2026-05-05 07:28 | 50.97352 | -132.65474 | 37011 ft | 498 kts | 151° |
| 2026-05-05 07:28 | 50.91510 | -132.59559 | 37020 ft | 498 kts | 151° |
| 2026-05-05 07:29 | 50.85662 | -132.53657 | 37013 ft | 499 kts | 151° |
| 2026-05-05 07:29 | 50.79807 | -132.47764 | 37012 ft | 499 kts | 151° |
| 2026-05-05 07:30 | 50.73948 | -132.41883 | 37017 ft | 499 kts | 151° |
| 2026-05-05 07:30 | 50.65152 | -132.33085 | 37013 ft | 499 kts | 151° |
| 2026-05-05 07:31 | 50.59282 | -132.27236 | 37018 ft | 499 kts | 151° |
| 2026-05-05 07:31 | 50.53401 | -132.21393 | 37011 ft | 500 kts | 151° |
| 2026-05-05 07:32 | 50.47514 | -132.15561 | 37010 ft | 500 kts | 151° |
| 2026-05-05 07:32 | 50.41625 | -132.09746 | 37013 ft | 500 kts | 151° |
| 2026-05-05 07:33 | 50.35770 | -132.03979 | 37006 ft | 500 kts | 151° |
| 2026-05-05 07:33 | 50.29876 | -131.98194 | 37012 ft | 501 kts | 151° |
| 2026-05-05 07:34 | 50.23930 | -131.92372 | 37014 ft | 501 kts | 151° |
| 2026-05-05 07:34 | 50.18049 | -131.86659 | 37006 ft | 501 kts | 152° |
| 2026-05-05 07:35 | 50.11967 | -131.81351 | 37013 ft | 500 kts | 153° |
| 2026-05-05 07:35 | 50.05970 | -131.75829 | 37008 ft | 501 kts | 152° |
| 2026-05-05 07:36 | 49.99922 | -131.70422 | 37004 ft | 501 kts | 153° |
| 2026-05-05 07:36 | 49.93853 | -131.65093 | 37006 ft | 501 kts | 153° |
| 2026-05-05 07:37 | 49.87783 | -131.59760 | 37015 ft | 501 kts | 153° |
| 2026-05-05 07:37 | 49.81759 | -131.54469 | 37012 ft | 501 kts | 153° |
| 2026-05-05 07:38 | 49.75688 | -131.49148 | 37008 ft | 501 kts | 153° |
| 2026-05-05 07:38 | 49.69614 | -131.43840 | 37003 ft | 501 kts | 153° |
| 2026-05-05 07:39 | 49.63542 | -131.38550 | 37009 ft | 501 kts | 153° |
| 2026-05-05 07:39 | 49.57465 | -131.33269 | 37009 ft | 501 kts | 153° |
| 2026-05-05 07:40 | 49.51385 | -131.28002 | 37001 ft | 501 kts | 153° |
| 2026-05-05 07:40 | 49.45296 | -131.22744 | 37007 ft | 501 kts | 152° |
| 2026-05-05 07:41 | 49.39212 | -131.17504 | 37002 ft | 501 kts | 152° |
| 2026-05-05 07:41 | 49.33120 | -131.12273 | 37003 ft | 501 kts | 152° |
| 2026-05-05 07:42 | 49.27032 | -131.07060 | 37000 ft | 501 kts | 152° |
| 2026-05-05 07:42 | 49.20940 | -131.01859 | 36997 ft | 501 kts | 152° |
| 2026-05-05 07:43 | 49.14849 | -130.96672 | 36993 ft | 501 kts | 152° |
| 2026-05-05 07:43 | 49.08756 | -130.91498 | 37001 ft | 501 kts | 152° |
| 2026-05-05 07:44 | 49.02665 | -130.86340 | 36999 ft | 501 kts | 152° |
| 2026-05-05 07:44 | 48.96576 | -130.81194 | 36995 ft | 501 kts | 152° |
| 2026-05-05 07:45 | 48.90485 | -130.76065 | 36997 ft | 500 kts | 152° |
| 2026-05-05 07:45 | 48.84431 | -130.70993 | 36995 ft | 500 kts | 152° |
| 2026-05-05 07:46 | 48.78339 | -130.65897 | 36991 ft | 500 kts | 152° |
| 2026-05-05 07:46 | 48.72241 | -130.60807 | 36994 ft | 500 kts | 152° |
| 2026-05-05 07:47 | 48.66151 | -130.55739 | 36991 ft | 499 kts | 152° |
| 2026-05-05 07:47 | 48.60064 | -130.50693 | 36989 ft | 499 kts | 152° |
| 2026-05-05 07:48 | 48.53974 | -130.45652 | 36989 ft | 499 kts | 152° |
| 2026-05-05 07:48 | 48.47891 | -130.40626 | 36987 ft | 499 kts | 152° |
| 2026-05-05 07:49 | 48.41795 | -130.35610 | 36990 ft | 499 kts | 152° |
| 2026-05-05 07:49 | 48.35695 | -130.30610 | 36987 ft | 499 kts | 152° |
| 2026-05-05 07:50 | 48.29602 | -130.25617 | 36983 ft | 499 kts | 152° |
| 2026-05-05 07:50 | 48.23509 | -130.20632 | 36987 ft | 499 kts | 152° |
| 2026-05-05 07:51 | 48.17410 | -130.15668 | 36991 ft | 499 kts | 152° |
| 2026-05-05 07:51 | 48.11302 | -130.10719 | 36985 ft | 498 kts | 152° |
| 2026-05-05 07:52 | 48.05203 | -130.05789 | 36985 ft | 499 kts | 152° |
| 2026-05-05 07:52 | 47.99100 | -130.00861 | 36983 ft | 499 kts | 152° |
| 2026-05-05 07:53 | 47.93029 | -129.95972 | 36982 ft | 499 kts | 151° |
| 2026-05-05 07:53 | 47.86915 | -129.91062 | 36983 ft | 499 kts | 151° |
| 2026-05-05 07:54 | 47.80802 | -129.86167 | 36981 ft | 499 kts | 151° |
| 2026-05-05 07:54 | 47.74686 | -129.81283 | 36977 ft | 499 kts | 151° |
| 2026-05-05 07:55 | 47.68577 | -129.76404 | 36978 ft | 499 kts | 151° |
| 2026-05-05 07:55 | 47.62458 | -129.71547 | 36978 ft | 499 kts | 151° |
| 2026-05-05 07:56 | 47.56351 | -129.66662 | 36977 ft | 499 kts | 150° |
| 2026-05-05 07:56 | 47.50233 | -129.61796 | 36980 ft | 499 kts | 151° |
| 2026-05-05 07:57 | 47.44097 | -129.56970 | 36982 ft | 500 kts | 151° |
| 2026-05-05 07:57 | 47.37958 | -129.52141 | 36983 ft | 500 kts | 151° |
| 2026-05-05 07:58 | 47.31862 | -129.47343 | 36981 ft | 500 kts | 151° |
| 2026-05-05 07:58 | 47.25718 | -129.42518 | 36977 ft | 500 kts | 151° |
| 2026-05-05 07:59 | 47.19562 | -129.37700 | 36979 ft | 501 kts | 151° |
| 2026-05-05 07:59 | 47.13411 | -129.32902 | 36982 ft | 501 kts | 151° |
| 2026-05-05 08:00 | 47.07257 | -129.28114 | 36981 ft | 500 kts | 151° |
| 2026-05-05 08:00 | 47.01100 | -129.23334 | 36974 ft | 501 kts | 151° |
| 2026-05-05 08:01 | 46.95982 | -129.19371 | 36989 ft | 501 kts | 151° |
| 2026-05-05 08:01 | 46.89824 | -129.14615 | 36985 ft | 501 kts | 151° |
| 2026-05-05 08:02 | 46.82658 | -129.09095 | 36987 ft | 500 kts | 151° |
| 2026-05-05 08:02 | 46.77496 | -129.05128 | 36987 ft | 501 kts | 151° |
| 2026-05-05 08:03 | 46.71326 | -129.00398 | 36990 ft | 501 kts | 150° |
| 2026-05-05 08:03 | 46.65154 | -128.95681 | 36990 ft | 501 kts | 150° |
| 2026-05-05 08:04 | 46.59018 | -128.91001 | 36990 ft | 501 kts | 150° |
| 2026-05-05 08:04 | 46.52832 | -128.86295 | 36993 ft | 501 kts | 150° |
| 2026-05-05 08:05 | 46.46649 | -128.81605 | 36996 ft | 501 kts | 150° |
| 2026-05-05 08:05 | 46.40465 | -128.76926 | 36995 ft | 501 kts | 150° |
| 2026-05-05 08:06 | 46.34276 | -128.72256 | 36993 ft | 501 kts | 150° |
| 2026-05-05 08:06 | 46.28080 | -128.67592 | 36997 ft | 501 kts | 150° |
| 2026-05-05 08:07 | 46.21887 | -128.62943 | 36996 ft | 502 kts | 150° |
| 2026-05-05 08:07 | 46.15694 | -128.58305 | 36997 ft | 502 kts | 150° |
| 2026-05-05 08:08 | 46.09495 | -128.53673 | 36998 ft | 502 kts | 150° |
| 2026-05-05 08:08 | 46.03292 | -128.49051 | 36996 ft | 502 kts | 150° |
| 2026-05-05 08:09 | 45.97087 | -128.44439 | 37000 ft | 502 kts | 150° |
| 2026-05-05 08:09 | 45.90871 | -128.39831 | 36997 ft | 502 kts | 150° |
| 2026-05-05 08:10 | 45.84653 | -128.35233 | 37001 ft | 503 kts | 150° |
| 2026-05-05 08:10 | 45.78467 | -128.30670 | 36999 ft | 503 kts | 150° |
| 2026-05-05 08:11 | 45.72239 | -128.26087 | 37000 ft | 503 kts | 150° |
| 2026-05-05 08:11 | 45.66002 | -128.21511 | 37006 ft | 503 kts | 150° |
| 2026-05-05 08:12 | 45.59774 | -128.16952 | 37000 ft | 503 kts | 150° |
| 2026-05-05 08:12 | 45.53539 | -128.12400 | 37004 ft | 503 kts | 150° |
| 2026-05-05 08:13 | 45.47305 | -128.07860 | 37007 ft | 503 kts | 150° |
| 2026-05-05 08:13 | 45.41069 | -128.03330 | 37006 ft | 503 kts | 150° |
| 2026-05-05 08:14 | 45.34826 | -127.98806 | 37007 ft | 504 kts | 150° |
| 2026-05-05 08:14 | 45.28579 | -127.94290 | 37007 ft | 504 kts | 150° |
| 2026-05-05 08:15 | 45.22335 | -127.89788 | 37011 ft | 504 kts | 150° |
| 2026-05-05 08:15 | 45.16083 | -127.85290 | 37013 ft | 504 kts | 150° |
| 2026-05-05 08:16 | 45.09826 | -127.80801 | 37014 ft | 504 kts | 150° |
| 2026-05-05 08:16 | 45.03574 | -127.76327 | 37015 ft | 504 kts | 150° |
| 2026-05-05 08:17 | 44.97356 | -127.71888 | 37015 ft | 504 kts | 150° |
| 2026-05-05 08:17 | 44.91091 | -127.67425 | 37011 ft | 504 kts | 150° |
| 2026-05-05 08:18 | 44.84830 | -127.62977 | 37019 ft | 504 kts | 149° |
| 2026-05-05 08:18 | 44.78566 | -127.58537 | 37020 ft | 504 kts | 149° |
| 2026-05-05 08:19 | 44.72297 | -127.54106 | 37023 ft | 504 kts | 149° |
| 2026-05-05 08:19 | 44.66026 | -127.49682 | 37022 ft | 504 kts | 149° |
| 2026-05-05 08:20 | 44.59756 | -127.45270 | 37023 ft | 504 kts | 149° |
| 2026-05-05 08:20 | 44.53478 | -127.40866 | 37022 ft | 504 kts | 149° |
| 2026-05-05 08:21 | 44.47206 | -127.36475 | 37025 ft | 504 kts | 149° |
| 2026-05-05 08:21 | 44.40932 | -127.32092 | 37026 ft | 504 kts | 149° |
| 2026-05-05 08:22 | 44.34648 | -127.27713 | 37028 ft | 504 kts | 149° |
| 2026-05-05 08:22 | 44.28369 | -127.23348 | 37029 ft | 504 kts | 149° |
| 2026-05-05 08:23 | 44.22082 | -127.18989 | 37031 ft | 504 kts | 149° |
| 2026-05-05 08:23 | 44.15795 | -127.14640 | 37031 ft | 504 kts | 149° |
| 2026-05-05 08:24 | 44.09512 | -127.10303 | 37033 ft | 504 kts | 149° |
| 2026-05-05 08:24 | 44.03217 | -127.05969 | 37032 ft | 505 kts | 149° |
| 2026-05-05 08:25 | 43.96923 | -127.01646 | 37033 ft | 504 kts | 149° |
| 2026-05-05 08:25 | 43.90666 | -126.97358 | 37033 ft | 505 kts | 149° |
| 2026-05-05 08:26 | 43.84369 | -126.93053 | 37033 ft | 505 kts | 149° |
| 2026-05-05 08:26 | 43.78072 | -126.88759 | 37032 ft | 505 kts | 149° |
| 2026-05-05 08:27 | 43.71771 | -126.84473 | 37035 ft | 504 kts | 149° |
| 2026-05-05 08:27 | 43.65474 | -126.80199 | 37039 ft | 504 kts | 149° |
| 2026-05-05 08:28 | 43.59175 | -126.75931 | 37044 ft | 504 kts | 149° |
| 2026-05-05 08:28 | 43.52875 | -126.71672 | 37042 ft | 504 kts | 149° |
| 2026-05-05 08:29 | 43.46574 | -126.67420 | 37043 ft | 504 kts | 149° |
| 2026-05-05 08:30 | 43.37108 | -126.61086 | 37045 ft | 504 kts | 149° |
| 2026-05-05 08:30 | 43.30780 | -126.56887 | 37047 ft | 504 kts | 149° |
| 2026-05-05 08:31 | 43.24458 | -126.52698 | 37048 ft | 504 kts | 149° |
| 2026-05-05 08:31 | 43.18137 | -126.48511 | 37041 ft | 504 kts | 149° |
| 2026-05-05 08:32 | 43.11819 | -126.44336 | 37040 ft | 504 kts | 149° |
| 2026-05-05 08:32 | 43.05497 | -126.40168 | 37045 ft | 504 kts | 149° |
| 2026-05-05 08:33 | 42.99177 | -126.36012 | 37049 ft | 504 kts | 149° |
| 2026-05-05 08:33 | 42.92851 | -126.31861 | 37049 ft | 504 kts | 148° |
| 2026-05-05 08:34 | 42.86522 | -126.27718 | 37048 ft | 504 kts | 148° |
| 2026-05-05 08:34 | 42.80198 | -126.23588 | 37047 ft | 504 kts | 148° |
| 2026-05-05 08:35 | 42.73869 | -126.19461 | 37053 ft | 504 kts | 148° |
| 2026-05-05 08:35 | 42.67885 | -126.14675 | 37052 ft | 495 kts | 137° |
| 2026-05-05 08:36 | 42.62496 | -126.09002 | 37047 ft | 493 kts | 136° |
| 2026-05-05 08:36 | 42.56959 | -126.03473 | 37050 ft | 496 kts | 139° |
| 2026-05-05 08:37 | 42.51373 | -125.98022 | 37049 ft | 493 kts | 137° |
| 2026-05-05 08:37 | 42.45816 | -125.92515 | 37045 ft | 495 kts | 138° |
| 2026-05-05 08:38 | 42.40208 | -125.87094 | 37048 ft | 495 kts | 138° |
| 2026-05-05 08:38 | 42.34638 | -125.81637 | 37055 ft | 494 kts | 137° |
| 2026-05-05 08:39 | 42.29058 | -125.76189 | 37051 ft | 495 kts | 138° |
| 2026-05-05 08:39 | 42.23458 | -125.70798 | 37051 ft | 495 kts | 138° |
| 2026-05-05 08:40 | 42.17901 | -125.65346 | 37055 ft | 494 kts | 137° |
| 2026-05-05 08:40 | 42.12302 | -125.59959 | 37046 ft | 494 kts | 138° |
| 2026-05-05 08:41 | 42.06711 | -125.54572 | 37046 ft | 493 kts | 137° |
| 2026-05-05 08:41 | 42.01134 | -125.49166 | 37054 ft | 494 kts | 137° |
| 2026-05-05 08:42 | 41.95520 | -125.43814 | 37046 ft | 494 kts | 137° |
| 2026-05-05 08:42 | 41.89949 | -125.38417 | 37051 ft | 494 kts | 137° |
| 2026-05-05 08:43 | 41.84341 | -125.33078 | 37049 ft | 494 kts | 137° |
| 2026-05-05 08:43 | 41.78744 | -125.27737 | 37046 ft | 493 kts | 137° |
| 2026-05-05 08:44 | 41.73153 | -125.22380 | 37045 ft | 494 kts | 137° |
| 2026-05-05 08:44 | 41.67529 | -125.17078 | 37042 ft | 494 kts | 137° |
| 2026-05-05 08:45 | 41.62886 | -125.12627 | 37043 ft | 494 kts | 137° |
| 2026-05-05 08:45 | 41.57268 | -125.07312 | 37048 ft | 495 kts | 137° |
| 2026-05-05 08:46 | 41.51633 | -125.02031 | 37045 ft | 495 kts | 137° |
| 2026-05-05 08:46 | 41.46030 | -124.96684 | 37045 ft | 495 kts | 137° |
| 2026-05-05 08:47 | 41.40390 | -124.91409 | 37049 ft | 495 kts | 137° |
| 2026-05-05 08:47 | 41.34788 | -124.86173 | 37053 ft | 495 kts | 136° |
| 2026-05-05 08:48 | 41.29174 | -124.80859 | 37053 ft | 495 kts | 137° |
| 2026-05-05 08:48 | 41.23524 | -124.75617 | 37052 ft | 495 kts | 137° |
| 2026-05-05 08:49 | 41.17889 | -124.70344 | 37054 ft | 495 kts | 137° |
| 2026-05-05 08:49 | 41.12255 | -124.65082 | 37057 ft | 495 kts | 137° |
| 2026-05-05 08:50 | 41.06597 | -124.59869 | 37050 ft | 495 kts | 137° |
| 2026-05-05 08:50 | 41.00970 | -124.54611 | 37058 ft | 495 kts | 137° |
| 2026-05-05 08:51 | 40.95314 | -124.49395 | 37060 ft | 495 kts | 137° |
| 2026-05-05 08:51 | 40.89653 | -124.44204 | 37062 ft | 495 kts | 137° |
| 2026-05-05 08:52 | 40.84024 | -124.38963 | 37061 ft | 495 kts | 137° |
| 2026-05-05 08:52 | 40.78352 | -124.33780 | 37065 ft | 496 kts | 137° |
| 2026-05-05 08:53 | 40.72687 | -124.28605 | 37062 ft | 495 kts | 137° |
| 2026-05-05 08:53 | 40.66985 | -124.23466 | 37045 ft | 503 kts | 144° |
| 2026-05-05 08:54 | 40.60893 | -124.18950 | 37061 ft | 503 kts | 143° |
| 2026-05-05 08:54 | 40.54702 | -124.14600 | 37066 ft | 505 kts | 144° |
| 2026-05-05 08:55 | 40.48538 | -124.10181 | 37077 ft | 504 kts | 143° |
| 2026-05-05 08:55 | 40.42369 | -124.05750 | 37053 ft | 506 kts | 144° |
| 2026-05-05 08:56 | 40.36172 | -124.01370 | 37052 ft | 506 kts | 144° |
| 2026-05-05 08:56 | 40.29959 | -123.96987 | 37047 ft | 507 kts | 144° |
| 2026-05-05 08:57 | 40.23796 | -123.92637 | 37041 ft | 506 kts | 144° |
| 2026-05-05 08:57 | 40.17588 | -123.88257 | 37050 ft | 507 kts | 144° |
| 2026-05-05 08:58 | 40.11376 | -123.83882 | 37043 ft | 507 kts | 144° |
| 2026-05-05 08:58 | 40.05120 | -123.79484 | 37048 ft | 507 kts | 144° |
| 2026-05-05 08:59 | 39.98936 | -123.75148 | 37048 ft | 507 kts | 144° |
| 2026-05-05 08:59 | 39.92708 | -123.70791 | 37040 ft | 508 kts | 144° |
| 2026-05-05 09:00 | 39.86470 | -123.66432 | 37046 ft | 509 kts | 144° |
| 2026-05-05 09:00 | 39.80214 | -123.62074 | 37022 ft | 509 kts | 144° |
| 2026-05-05 09:01 | 39.73965 | -123.57725 | 37044 ft | 510 kts | 144° |
| 2026-05-05 09:01 | 39.67697 | -123.53372 | 37032 ft | 511 kts | 144° |
| 2026-05-05 09:02 | 39.61420 | -123.49023 | 37042 ft | 512 kts | 144° |
| 2026-05-05 09:02 | 39.55132 | -123.44678 | 37039 ft | 512 kts | 144° |
| 2026-05-05 09:03 | 39.48836 | -123.40337 | 37030 ft | 513 kts | 144° |
| 2026-05-05 09:03 | 39.42538 | -123.36003 | 37018 ft | 513 kts | 144° |
| 2026-05-05 09:04 | 39.36301 | -123.31721 | 37027 ft | 513 kts | 144° |
| 2026-05-05 09:04 | 39.30003 | -123.27405 | 37032 ft | 512 kts | 145° |
| 2026-05-05 09:05 | 39.23733 | -123.23120 | 37040 ft | 513 kts | 145° |
| 2026-05-05 09:05 | 39.17478 | -123.18727 | 37036 ft | 509 kts | 141° |
| 2026-05-05 09:06 | 39.11585 | -123.13747 | 37037 ft | 505 kts | 139° |
| 2026-05-05 09:06 | 39.05768 | -123.08650 | 37033 ft | 501 kts | 133° |
| 2026-05-05 09:07 | 38.99887 | -123.03692 | 37025 ft | 514 kts | 147° |
| 2026-05-05 09:07 | 38.93385 | -122.99827 | 37037 ft | 515 kts | 148° |
| 2026-05-05 09:08 | 38.87031 | -122.95639 | 37033 ft | 512 kts | 145° |
| 2026-05-05 09:08 | 38.80646 | -122.91525 | 37015 ft | 514 kts | 147° |
| 2026-05-05 09:09 | 38.74280 | -122.87397 | 37020 ft | 512 kts | 146° |
| 2026-05-05 09:09 | 38.67942 | -122.83224 | 37036 ft | 512 kts | 146° |
| 2026-05-05 09:10 | 38.61583 | -122.79092 | 37060 ft | 513 kts | 147° |
| 2026-05-05 09:10 | 38.55206 | -122.75006 | 37048 ft | 513 kts | 146° |
| 2026-05-05 09:11 | 38.48885 | -122.70904 | 37060 ft | 513 kts | 146° |
| 2026-05-05 09:11 | 38.42518 | -122.66790 | 37033 ft | 513 kts | 147° |
| 2026-05-05 09:12 | 38.36136 | -122.62691 | 37028 ft | 514 kts | 147° |
| 2026-05-05 09:12 | 38.29741 | -122.58595 | 37026 ft | 514 kts | 147° |
| 2026-05-05 09:13 | 38.23340 | -122.54499 | 37041 ft | 515 kts | 147° |
| 2026-05-05 09:13 | 38.16930 | -122.50402 | 37043 ft | 516 kts | 147° |
| 2026-05-05 09:14 | 38.10503 | -122.46304 | 37044 ft | 517 kts | 147° |
| 2026-05-05 09:14 | 38.04449 | -122.42452 | 37043 ft | 518 kts | 148° |
| 2026-05-05 09:15 | 37.97996 | -122.38353 | 37036 ft | 519 kts | 148° |
| 2026-05-05 09:15 | 37.91537 | -122.34261 | 37063 ft | 519 kts | 148° |
| 2026-05-05 09:16 | 37.85075 | -122.30173 | 37074 ft | 520 kts | 148° |
| 2026-05-05 09:16 | 37.78605 | -122.26090 | 37092 ft | 520 kts | 148° |
| 2026-05-05 09:17 | 37.72155 | -122.21958 | 37086 ft | 517 kts | 143° |
| 2026-05-05 09:17 | 37.66652 | -122.16320 | 37068 ft | 507 kts | 132° |
| 2026-05-05 09:18 | 37.61413 | -122.10340 | 37068 ft | 510 kts | 135° |
| 2026-05-05 09:18 | 37.55885 | -122.04707 | 37068 ft | 510 kts | 135° |
| 2026-05-05 09:19 | 37.50559 | -121.98919 | 37064 ft | 509 kts | 135° |
| 2026-05-05 09:19 | 37.45086 | -121.93237 | 37069 ft | 509 kts | 136° |
| 2026-05-05 09:20 | 37.39648 | -121.87517 | 37072 ft | 509 kts | 136° |
| 2026-05-05 09:20 | 37.34230 | -121.81792 | 37075 ft | 508 kts | 136° |
| 2026-05-05 09:21 | 37.28804 | -121.76083 | 37071 ft | 508 kts | 136° |
| 2026-05-05 09:21 | 37.23376 | -121.70394 | 37058 ft | 509 kts | 136° |
| 2026-05-05 09:22 | 37.17937 | -121.64707 | 37064 ft | 509 kts | 136° |
| 2026-05-05 09:22 | 37.12490 | -121.59021 | 37046 ft | 509 kts | 136° |
| 2026-05-05 09:23 | 37.07038 | -121.53345 | 37068 ft | 511 kts | 137° |
| 2026-05-05 09:23 | 37.01573 | -121.47663 | 37080 ft | 511 kts | 137° |
| 2026-05-05 09:24 | 36.96095 | -121.41981 | 37071 ft | 512 kts | 137° |
| 2026-05-05 09:24 | 36.90612 | -121.36303 | 37071 ft | 512 kts | 137° |
| 2026-05-05 09:25 | 36.85113 | -121.30617 | 37075 ft | 513 kts | 137° |
| 2026-05-05 09:25 | 36.79606 | -121.24933 | 37076 ft | 514 kts | 137° |
| 2026-05-05 09:26 | 36.74079 | -121.19243 | 37074 ft | 515 kts | 138° |
| 2026-05-05 09:26 | 36.68547 | -121.13559 | 37076 ft | 515 kts | 138° |
| 2026-05-05 09:27 | 36.63007 | -121.07880 | 37069 ft | 516 kts | 138° |
| 2026-05-05 09:27 | 36.57463 | -121.02204 | 37061 ft | 516 kts | 138° |
| 2026-05-05 09:28 | 36.51914 | -120.96538 | 37066 ft | 516 kts | 138° |
| 2026-05-05 09:28 | 36.46358 | -120.90873 | 37048 ft | 516 kts | 139° |
| 2026-05-05 09:29 | 36.40832 | -120.85249 | 37054 ft | 517 kts | 139° |
| 2026-05-05 09:29 | 36.35257 | -120.79587 | 37057 ft | 517 kts | 139° |
| 2026-05-05 09:30 | 36.30622 | -120.74890 | 37054 ft | 517 kts | 139° |
| 2026-05-05 09:30 | 36.25043 | -120.69243 | 37054 ft | 518 kts | 139° |
| 2026-05-05 09:31 | 36.19458 | -120.63602 | 37042 ft | 518 kts | 139° |
| 2026-05-05 09:31 | 36.13870 | -120.57967 | 37046 ft | 518 kts | 140° |
| 2026-05-05 09:32 | 36.08278 | -120.52338 | 37046 ft | 518 kts | 140° |
| 2026-05-05 09:32 | 36.02681 | -120.46718 | 37058 ft | 519 kts | 140° |
| 2026-05-05 09:33 | 35.97072 | -120.41096 | 37055 ft | 519 kts | 140° |
| 2026-05-05 09:33 | 35.91464 | -120.35482 | 37059 ft | 520 kts | 141° |
| 2026-05-05 09:34 | 35.85838 | -120.29862 | 37054 ft | 521 kts | 141° |
| 2026-05-05 09:34 | 35.80206 | -120.24246 | 37048 ft | 521 kts | 141° |
| 2026-05-05 09:35 | 35.74572 | -120.18639 | 37048 ft | 521 kts | 141° |
| 2026-05-05 09:35 | 35.66112 | -120.10327 | 37038 ft | 521 kts | 144° |
| 2026-05-05 09:36 | 35.59975 | -120.05607 | 37042 ft | 520 kts | 151° |
| 2026-05-05 09:36 | 35.53717 | -120.01132 | 37038 ft | 521 kts | 148° |
| 2026-05-05 09:37 | 35.47590 | -119.96381 | 37040 ft | 520 kts | 151° |
| 2026-05-05 09:37 | 35.41372 | -119.91821 | 37039 ft | 520 kts | 150° |
| 2026-05-05 09:38 | 35.35211 | -119.87160 | 37040 ft | 520 kts | 150° |
| 2026-05-05 09:38 | 35.29063 | -119.82503 | 36916 ft | 515 kts | 149° |
| 2026-05-05 09:39 | 35.26120 | -119.80043 | 36231 ft | 512 kts | 144° |
| 2026-05-05 09:39 | 35.23335 | -119.77350 | 35571 ft | 508 kts | 142° |
| 2026-05-05 09:39 | 35.20616 | -119.74620 | 34927 ft | 504 kts | 142° |
| 2026-05-05 09:39 | 35.17847 | -119.72025 | 34278 ft | 499 kts | 145° |
| 2026-05-05 09:40 | 35.15050 | -119.69530 | 33565 ft | 496 kts | 144° |
| 2026-05-05 09:40 | 35.12311 | -119.67000 | 32848 ft | 491 kts | 143° |
| 2026-05-05 09:40 | 35.09644 | -119.64439 | 32190 ft | 485 kts | 143° |
| 2026-05-05 09:40 | 35.06989 | -119.61932 | 31554 ft | 479 kts | 143° |
| 2026-05-05 09:41 | 35.04353 | -119.59476 | 30919 ft | 474 kts | 143° |
| 2026-05-05 09:41 | 35.01774 | -119.57090 | 30315 ft | 468 kts | 143° |
| 2026-05-05 09:41 | 34.99194 | -119.54709 | 29644 ft | 463 kts | 143° |
| 2026-05-05 09:41 | 34.96652 | -119.52356 | 28994 ft | 456 kts | 143° |
| 2026-05-05 09:42 | 34.94133 | -119.50026 | 28383 ft | 453 kts | 143° |
| 2026-05-05 09:42 | 34.91550 | -119.47646 | 27847 ft | 478 kts | 144° |
| 2026-05-05 09:42 | 34.88808 | -119.45156 | 27339 ft | 503 kts | 144° |
| 2026-05-05 09:42 | 34.85955 | -119.42592 | 26780 ft | 512 kts | 144° |
| 2026-05-05 09:43 | 34.83095 | -119.40039 | 26212 ft | 507 kts | 145° |
| 2026-05-05 09:43 | 34.80258 | -119.37508 | 25622 ft | 502 kts | 145° |
| 2026-05-05 09:43 | 34.77454 | -119.35013 | 25060 ft | 497 kts | 145° |
| 2026-05-05 09:43 | 34.74673 | -119.32544 | 24516 ft | 493 kts | 145° |
| 2026-05-05 09:44 | 34.71906 | -119.30109 | 23994 ft | 489 kts | 146° |
| 2026-05-05 09:44 | 34.69157 | -119.27706 | 23451 ft | 485 kts | 146° |
| 2026-05-05 09:44 | 34.66422 | -119.25331 | 22836 ft | 481 kts | 146° |
| 2026-05-05 09:44 | 34.63706 | -119.22979 | 22295 ft | 477 kts | 146° |
| 2026-05-05 09:45 | 34.61012 | -119.20649 | 21769 ft | 474 kts | 146° |
| 2026-05-05 09:45 | 34.58366 | -119.18366 | 21280 ft | 472 kts | 146° |
| 2026-05-05 09:45 | 34.55697 | -119.16064 | 20761 ft | 469 kts | 146° |
| 2026-05-05 09:45 | 34.53066 | -119.13753 | 20262 ft | 466 kts | 145° |
| 2026-05-05 09:46 | 34.50452 | -119.11440 | 19745 ft | 463 kts | 145° |
| 2026-05-05 09:46 | 34.47859 | -119.09135 | 19234 ft | 461 kts | 145° |
| 2026-05-05 09:46 | 34.45282 | -119.06841 | 18740 ft | 458 kts | 145° |
| 2026-05-05 09:46 | 34.42715 | -119.04573 | 18225 ft | 456 kts | 146° |
| 2026-05-05 09:47 | 34.40153 | -119.02334 | 17679 ft | 452 kts | 146° |
| 2026-05-05 09:47 | 34.37602 | -119.00125 | 17164 ft | 449 kts | 146° |
| 2026-05-05 09:47 | 34.35067 | -118.97944 | 16671 ft | 445 kts | 146° |
| 2026-05-05 09:47 | 34.32544 | -118.95785 | 16189 ft | 443 kts | 146° |
| 2026-05-05 09:48 | 34.30115 | -118.93562 | 15690 ft | 431 kts | 143° |
| 2026-05-05 09:48 | 34.27792 | -118.91373 | 15222 ft | 416 kts | 144° |
| 2026-05-05 09:48 | 34.25515 | -118.89303 | 14764 ft | 403 kts | 146° |
| 2026-05-05 09:48 | 34.23280 | -118.87343 | 14326 ft | 392 kts | 145° |
| 2026-05-05 09:49 | 34.21864 | -118.86029 | 14045 ft | 386 kts | 143° |
| 2026-05-05 09:49 | 34.19776 | -118.84032 | 13612 ft | 376 kts | 144° |
| 2026-05-05 09:49 | 34.17701 | -118.82175 | 13198 ft | 367 kts | 146° |
| 2026-05-05 09:49 | 34.15693 | -118.80315 | 12783 ft | 360 kts | 141° |
| 2026-05-05 09:50 | 34.13859 | -118.78305 | 12399 ft | 353 kts | 138° |
| 2026-05-05 09:50 | 34.12114 | -118.76267 | 12010 ft | 346 kts | 137° |
| 2026-05-05 09:50 | 34.10353 | -118.74325 | 11632 ft | 340 kts | 140° |
| 2026-05-05 09:50 | 34.08575 | -118.72475 | 11278 ft | 334 kts | 140° |
| 2026-05-05 09:51 | 34.06850 | -118.70621 | 10909 ft | 330 kts | 139° |
| 2026-05-05 09:51 | 34.05190 | -118.68758 | 10521 ft | 317 kts | 139° |
| 2026-05-05 09:51 | 34.03775 | -118.66900 | 10124 ft | 297 kts | 121° |
| 2026-05-05 09:51 | 34.03117 | -118.64569 | 9850 ft | 294 kts | 98° |
| 2026-05-05 09:52 | 34.02756 | -118.62139 | 9636 ft | 289 kts | 101° |
| 2026-05-05 09:52 | 34.02399 | -118.59807 | 9354 ft | 285 kts | 100° |
| 2026-05-05 09:52 | 34.02082 | -118.57462 | 8996 ft | 282 kts | 97° |
| 2026-05-05 09:52 | 34.01888 | -118.55120 | 8632 ft | 279 kts | 95° |
| 2026-05-05 09:53 | 34.01713 | -118.52806 | 8313 ft | 274 kts | 96° |
| 2026-05-05 09:53 | 34.01491 | -118.50551 | 7975 ft | 268 kts | 98° |
| 2026-05-05 09:53 | 34.01259 | -118.48341 | 7665 ft | 263 kts | 97° |
| 2026-05-05 09:53 | 34.01088 | -118.46171 | 7363 ft | 258 kts | 90° |
| 2026-05-05 09:54 | 34.01406 | -118.44067 | 7093 ft | 253 kts | 78° |
| 2026-05-05 09:54 | 34.01717 | -118.41998 | 6831 ft | 249 kts | 81° |
| 2026-05-05 09:54 | 34.01997 | -118.39955 | 6556 ft | 245 kts | 80° |
| 2026-05-05 09:54 | 34.02325 | -118.37951 | 6274 ft | 242 kts | 77° |
| 2026-05-05 09:55 | 34.02707 | -118.35979 | 6014 ft | 239 kts | 78° |
| 2026-05-05 09:55 | 34.02971 | -118.34040 | 5994 ft | 234 kts | 84° |
| 2026-05-05 09:55 | 34.03137 | -118.32091 | 5996 ft | 234 kts | 85° |
| 2026-05-05 09:55 | 34.03276 | -118.30138 | 5986 ft | 235 kts | 85° |
| 2026-05-05 09:56 | 34.03474 | -118.28170 | 5708 ft | 236 kts | 82° |
| 2026-05-05 09:56 | 34.03713 | -118.26254 | 5588 ft | 227 kts | 82° |
| 2026-05-05 09:56 | 34.03921 | -118.24403 | 5398 ft | 219 kts | 83° |
| 2026-05-05 09:56 | 34.04083 | -118.22601 | 5138 ft | 214 kts | 84° |
| 2026-05-05 09:57 | 34.04245 | -118.20836 | 4889 ft | 210 kts | 84° |
| 2026-05-05 09:57 | 34.04410 | -118.19126 | 4618 ft | 207 kts | 83° |
| 2026-05-05 09:57 | 34.04586 | -118.17416 | 4340 ft | 204 kts | 83° |
| 2026-05-05 09:57 | 34.04760 | -118.15735 | 3993 ft | 200 kts | 82° |
| 2026-05-05 09:58 | 34.04728 | -118.14080 | 3514 ft | 199 kts | 110° |
| 2026-05-05 09:58 | 34.03900 | -118.12859 | 3592 ft | 188 kts | 151° |
| 2026-05-05 09:58 | 34.02644 | -118.12503 | 3617 ft | 187 kts | 178° |
| 2026-05-05 09:58 | 34.01385 | -118.12408 | 3593 ft | 178 kts | 179° |
| 2026-05-05 09:59 | 34.00149 | -118.12342 | 3600 ft | 178 kts | 180° |
| 2026-05-05 09:59 | 33.98957 | -118.12601 | 3556 ft | 175 kts | 215° |
| 2026-05-05 09:59 | 33.98080 | -118.13593 | 3660 ft | 174 kts | 228° |
| 2026-05-05 09:59 | 33.97250 | -118.14661 | 3602 ft | 174 kts | 230° |
| 2026-05-05 10:00 | 33.96444 | -118.15747 | 3603 ft | 174 kts | 233° |
| 2026-05-05 10:00 | 33.96004 | -118.17074 | 3607 ft | 172 kts | 261° |
| 2026-05-05 10:00 | 33.95754 | -118.18497 | 3417 ft | 174 kts | 259° |
| 2026-05-05 10:00 | 33.95528 | -118.19928 | 3163 ft | 174 kts | 263° |
| 2026-05-05 10:01 | 33.95388 | -118.21373 | 2917 ft | 173 kts | 266° |
| 2026-05-05 10:01 | 33.95282 | -118.22814 | 2694 ft | 173 kts | 266° |
| 2026-05-05 10:01 | 33.95170 | -118.24256 | 2474 ft | 173 kts | 265° |
| 2026-05-05 10:01 | 33.95038 | -118.25679 | 2236 ft | 172 kts | 264° |
| 2026-05-05 10:02 | 33.94888 | -118.27104 | 1998 ft | 171 kts | 263° |
| 2026-05-05 10:02 | 33.94734 | -118.28497 | 1765 ft | 163 kts | 263° |
| 2026-05-05 10:02 | 33.94593 | -118.29816 | 1555 ft | 157 kts | 264° |
| 2026-05-05 10:02 | 33.94458 | -118.31116 | 1355 ft | 156 kts | 264° |
| 2026-05-05 10:03 | 33.94326 | -118.32410 | 1150 ft | 156 kts | 264° |
| 2026-05-05 10:03 | 33.94199 | -118.33703 | 916 ft | 155 kts | 264° |
| 2026-05-05 10:03 | 33.94074 | -118.34959 | 684 ft | 154 kts | 264° |
| 2026-05-05 10:03 | 33.93945 | -118.36235 | 481 ft | 153 kts | 263° |
| 2026-05-05 10:04 | 33.93814 | -118.37519 | 281 ft | 155 kts | 264° |
| 2026-05-05 10:04 | 33.93683 | -118.38804 | 127 ft | 149 kts | 264° |
| 2026-05-05 10:04 | 33.93576 | -118.39847 | 115 ft | 92 kts | 263° |
| 2026-05-05 10:04 | 33.93519 | -118.40397 | 116 ft | 52 kts | 262° |
| 2026-05-05 10:05 | 33.93480 | -118.40785 | 118 ft | 42 kts | 262° |
| 2026-05-05 10:05 | 33.93450 | -118.41062 | 116 ft | 22 kts | 263° |
| 2026-05-05 10:05 | 33.93437 | -118.41201 | 116 ft | 9 kts | 262° |
| 2026-05-05 10:05 | 33.93417 | -118.41229 | 116 ft | 3 kts | 205° |
| 2026-05-05 10:06 | 33.93384 | -118.41228 | 116 ft | 8 kts | 176° |
| 2026-05-05 10:06 | 33.93326 | -118.41219 | 109 ft | 7 kts | 155° |
| 2026-05-05 10:06 | 33.93316 | -118.41178 | 107 ft | 7 kts | 92° |
| 2026-05-05 10:06 | 33.93322 | -118.41126 | 106 ft | 6 kts | 82° |
| 2026-05-05 10:07 | 33.93327 | -118.41078 | 107 ft | 6 kts | 83° |
| 2026-05-05 10:07 | 33.93333 | -118.41025 | 107 ft | 8 kts | 83° |
| 2026-05-05 10:07 | 33.93340 | -118.40943 | 108 ft | 11 kts | 84° |
| 2026-05-05 10:07 | 33.93352 | -118.40837 | 106 ft | 14 kts | 83° |
| 2026-05-05 10:08 | 33.93363 | -118.40723 | 106 ft | 13 kts | 83° |
| 2026-05-05 10:08 | 33.93373 | -118.40626 | 107 ft | 10 kts | 83° |
| 2026-05-05 10:08 | 33.93367 | -118.40585 | 106 ft | 3 kts | 129° |
| 2026-05-05 10:08 | 33.93344 | -118.40575 | 106 ft | 6 kts | 165° |
| 2026-05-05 10:09 | 33.93304 | -118.40569 | 104 ft | 6 kts | 173° |
| 2026-05-05 10:09 | 33.93289 | -118.40567 | 105 ft | 0 kts | 173° |